Time;durP1;ratioP1;P1;durP2;ratioP2;P2;SDS_P1;SDS_P2;PMS_P1;PMS_P2;Temp;Humidity;BMP_temperature;BMP_pressure;BME280_temperature;BME280_humidity;BME280_pressure;Samples;Min_cycle;Max_cycle;Signal;HPM_P1;HPM_P2
2022/09/20 00:01:05;;;;;;;10.63;4.57;;;;;;;11.78;80.33;100433.47;5103453;27;20129;-87
2022/09/20 00:03:32;;;;;;;11.00;3.60;;;;;;;11.93;80.35;100436.66;5134203;27;20035;-87
2022/09/20 00:06:00;;;;;;;21.30;4.72;;;;;;;11.92;80.02;100432.34;5098272;27;20035;-86
2022/09/20 00:08:27;;;;;;;10.40;3.72;;;;;;;11.99;80.36;100435.34;5069401;27;20552;-88
2022/09/20 00:11:01;;;;;;;7.57;3.83;;;;;;;11.93;79.78;100431.34;5067949;27;20465;-87
2022/09/20 00:13:28;;;;;;;9.15;4.15;;;;;;;12.03;79.76;100434.09;5101721;27;20111;-86
2022/09/20 00:15:55;;;;;;;12.43;4.15;;;;;;;11.98;79.85;100431.81;5104523;27;20126;-86
2022/09/20 00:18:22;;;;;;;11.35;4.18;;;;;;;11.99;79.89;100432.66;5091867;27;20053;-87
2022/09/20 00:20:49;;;;;;;12.70;3.92;;;;;;;11.99;80.25;100435.34;5103820;27;20100;-88
2022/09/20 00:23:17;;;;;;;11.80;4.32;;;;;;;11.99;80.66;100427.34;5096040;27;20050;-87
2022/09/20 00:25:43;;;;;;;12.77;5.03;;;;;;;12.01;80.22;100426.25;5109178;27;20137;-86
2022/09/20 00:28:10;;;;;;;11.30;4.20;;;;;;;11.99;80.05;100428.19;5074515;27;20050;-88
2022/09/20 00:30:37;;;;;;;10.40;3.88;;;;;;;12.00;79.87;100429.88;5111240;27;20038;-87
2022/09/20 00:33:04;;;;;;;8.88;4.38;;;;;;;12.01;80.12;100433.38;5073916;27;20048;-88
2022/09/20 00:35:31;;;;;;;9.13;4.10;;;;;;;11.95;80.47;100435.56;5090256;27;20054;-87
2022/09/20 00:37:57;;;;;;;12.75;4.40;;;;;;;12.00;80.47;100432.53;5119011;27;20050;-88
2022/09/20 00:40:25;;;;;;;16.88;5.25;;;;;;;12.01;79.75;100426.25;5077289;27;20073;-87
2022/09/20 00:42:52;;;;;;;13.95;5.05;;;;;;;12.00;80.24;100424.53;5088134;27;20133;-87
2022/09/20 00:45:23;;;;;;;13.70;4.80;;;;;;;11.96;80.32;100420.47;5080454;27;20465;-87
2022/09/20 00:48:12;;;;;;;12.68;5.03;;;;;;;11.94;80.53;100428.56;5091488;27;20078;-88
2022/09/20 00:50:48;;;;;;;13.65;5.10;;;;;;;11.91;80.26;100433.31;5095117;27;20479;-87
2022/09/20 00:53:23;;;;;;;14.27;5.80;;;;;;;11.98;80.25;100431.81;5094235;27;20070;-87
2022/09/20 00:55:51;;;;;;;11.98;6.03;;;;;;;12.03;79.65;100429.59;5096593;27;20070;-88
2022/09/20 00:58:19;;;;;;;15.90;6.60;;;;;;;12.01;79.65;100438.69;5109519;27;20051;-89
2022/09/20 01:00:47;;;;;;;11.32;4.97;;;;;;;11.99;79.43;100430.00;5084756;27;20070;-88
2022/09/20 01:03:15;;;;;;;11.05;5.82;;;;;;;11.97;79.57;100423.97;5102116;27;20125;-88
2022/09/20 01:05:43;;;;;;;14.32;6.00;;;;;;;11.97;79.84;100418.66;5087082;27;20075;-88
2022/09/20 01:08:09;;;;;;;14.45;5.75;;;;;;;11.96;79.78;100412.47;5094691;27;20043;-88
2022/09/20 01:10:37;;;;;;;10.07;5.45;;;;;;;11.98;79.96;100417.66;5106889;27;20077;-87
2022/09/20 01:13:04;;;;;;;14.77;5.80;;;;;;;12.01;79.71;100423.59;5092641;27;20031;-88
2022/09/20 01:15:32;;;;;;;11.35;5.78;;;;;;;11.95;80.08;100419.59;5105853;27;20039;-88
2022/09/20 01:18:00;;;;;;;11.38;6.20;;;;;;;11.99;80.10;100424.69;5093801;27;20137;-89
2022/09/20 01:20:26;;;;;;;13.73;6.13;;;;;;;11.95;80.08;100422.25;5084413;27;20086;-88
2022/09/20 01:23:08;;;;;;;15.30;6.00;;;;;;;11.86;79.67;100420.41;5081037;27;20486;-88
2022/09/20 01:25:53;;;;;;;12.57;6.18;;;;;;;11.80;80.47;100420.03;5122899;27;20039;-88
2022/09/20 01:28:20;;;;;;;16.55;6.50;;;;;;;11.92;80.31;100421.69;5128179;27;20045;-88
2022/09/20 01:30:57;;;;;;;14.93;6.10;;;;;;;11.83;80.63;100423.28;5079743;27;20391;-88
2022/09/20 01:33:36;;;;;;;13.02;6.20;;;;;;;11.80;81.12;100423.53;5082170;27;20486;-88
2022/09/20 01:36:04;;;;;;;20.40;6.75;;;;;;;11.94;81.00;100420.59;5097207;27;20039;-88
2022/09/20 01:39:03;;;;;;;13.00;5.85;;;;;;;11.77;81.74;100423.78;5087616;27;20406;-89
2022/09/20 01:41:55;;;;;;;16.63;6.43;;;;;;;11.76;82.12;100426.59;5121935;27;20099;-89
2022/09/20 01:44:27;;;;;;;15.77;5.80;;;;;;;11.89;81.37;100422.78;5096050;27;20066;-88
2022/09/20 01:47:04;;;;;;;16.83;5.88;;;;;;;11.93;81.17;100420.69;5105671;27;20043;-88
2022/09/20 01:49:39;;;;;;;14.27;6.28;;;;;;;11.95;81.40;100419.59;5090764;27;20074;-88
2022/09/20 01:52:21;;;;;;;12.32;6.85;;;;;;;11.95;81.26;100413.44;5102707;27;20078;-88
2022/09/20 01:55:35;;;;;;;13.20;6.18;;;;;;;11.76;82.08;100418.63;5115546;27;20039;-88
2022/09/20 01:58:27;;;;;;;16.23;6.18;;;;;;;11.85;81.96;100420.47;5047593;27;20073;-88
2022/09/20 02:01:42;;;;;;;12.63;6.13;;;;;;;11.83;81.53;100425.97;5103749;27;20096;-87
2022/09/20 02:04:33;;;;;;;15.93;6.78;;;;;;;11.80;82.05;100434.16;5089092;27;20446;-87
2022/09/20 02:07:29;;;;;;;15.02;6.00;;;;;;;11.98;81.79;100430.97;5113861;27;20447;-88
2022/09/20 02:10:07;;;;;;;18.50;7.63;;;;;;;11.87;81.27;100430.06;5052822;27;20041;-88
2022/09/20 02:12:55;;;;;;;19.73;6.97;;;;;;;12.05;81.23;100432.13;5137163;27;20067;-89
2022/09/20 02:15:51;;;;;;;14.82;6.78;;;;;;;11.94;81.37;100433.91;5100851;27;20122;-88
2022/09/20 02:19:00;;;;;;;15.07;6.57;;;;;;;11.86;82.12;100425.72;5100718;27;20542;-88
2022/09/20 02:21:37;;;;;;;14.05;6.07;;;;;;;11.93;81.59;100426.91;5086333;27;20482;-88
2022/09/20 02:24:24;;;;;;;15.00;6.78;;;;;;;11.91;82.04;100420.84;5083081;27;20504;-89
2022/09/20 02:27:24;;;;;;;12.57;6.38;;;;;;;11.90;82.07;100418.31;5115313;27;20139;-87
2022/09/20 02:30:34;;;;;;;14.77;6.28;;;;;;;11.86;81.97;100423.06;5088724;27;20074;-88
2022/09/20 02:33:24;;;;;;;12.90;6.90;;;;;;;11.85;81.89;100421.31;5078176;27;20082;-88
2022/09/20 02:36:09;;;;;;;20.73;7.32;;;;;;;11.82;82.08;100416.25;5105084;27;20101;-89
2022/09/20 02:38:44;;;;;;;14.10;7.03;;;;;;;11.85;81.79;100416.00;5113183;27;20040;-88
2022/09/20 02:41:48;;;;;;;17.48;6.90;;;;;;;11.77;82.03;100425.63;5109120;27;20059;-88
2022/09/20 02:44:35;;;;;;;21.67;7.35;;;;;;;11.84;81.39;100426.78;5082582;27;20148;-88
2022/09/20 02:47:02;;;;;;;12.75;6.43;;;;;;;11.89;81.56;100427.28;5108368;27;20036;-89
2022/09/20 02:50:05;;;;;;;15.48;6.60;;;;;;;11.74;81.35;100419.56;5124107;27;20088;-89
2022/09/20 02:52:43;;;;;;;17.03;6.60;;;;;;;11.79;81.59;100426.34;5057767;27;20085;-89
2022/09/20 02:55:54;;;;;;;20.15;6.80;;;;;;;11.64;81.62;100429.28;5106449;27;20536;-89
2022/09/20 02:58:37;;;;;;;16.83;7.32;;;;;;;11.65;81.46;100425.69;5093418;27;20491;-89
2022/09/20 03:01:16;;;;;;;24.92;8.60;;;;;;;11.58;81.35;100426.31;5083856;27;20146;-89
2022/09/20 03:04:02;;;;;;;17.00;7.70;;;;;;;11.57;81.18;100428.13;5097811;27;20092;-88
2022/09/20 03:06:54;;;;;;;23.38;7.80;;;;;;;11.53;81.08;100429.34;5108597;27;20044;-89
2022/09/20 03:09:41;;;;;;;20.48;8.15;;;;;;;11.47;80.64;100422.75;5091508;27;20061;-90
2022/09/20 03:12:13;;;;;;;20.20;8.38;;;;;;;11.57;80.48;100425.44;5097862;27;20042;-88
2022/09/20 03:14:56;;;;;;;18.83;8.00;;;;;;;11.54;80.44;100424.88;5108003;27;20115;-89
2022/09/20 03:17:32;;;;;;;16.33;8.20;;;;;;;11.47;80.40;100436.03;5100209;27;20429;-89
2022/09/20 03:20:07;;;;;;;16.00;7.32;;;;;;;11.55;80.06;100434.53;5112161;27;20093;-88
2022/09/20 03:22:46;;;;;;;27.00;8.05;;;;;;;11.47;80.67;100443.16;5093549;27;20043;-88
2022/09/20 03:25:34;;;;;;;15.77;7.85;;;;;;;11.41;80.72;100444.50;5079750;27;20088;-89
2022/09/20 03:28:10;;;;;;;24.27;9.48;;;;;;;11.49;80.57;100455.34;5094909;27;20432;-89
2022/09/20 03:31:24;;;;;;;25.20;8.50;;;;;;;11.39;80.73;100456.22;5118401;27;20039;-89
2022/09/20 03:34:12;;;;;;;17.90;8.27;;;;;;;11.50;80.90;100453.56;5026489;28;20509;-88
2022/09/20 03:36:57;;;;;;;23.27;9.15;;;;;;;11.39;81.17;100459.72;5116975;27;20070;-88
2022/09/20 03:39:45;;;;;;;20.85;9.18;;;;;;;11.49;80.87;100457.16;5103531;27;20043;-89
2022/09/20 03:42:19;;;;;;;26.45;10.75;;;;;;;11.50;80.26;100456.22;5114908;27;20042;-88
2022/09/20 03:45:12;;;;;;;27.63;11.38;;;;;;;11.43;80.52;100466.50;5066030;27;20454;-89
2022/09/20 03:48:02;;;;;;;27.30;10.95;;;;;;;11.36;80.52;100459.16;5090902;27;20035;-88
2022/09/20 03:50:48;;;;;;;27.42;11.25;;;;;;;11.42;80.52;100462.16;5097186;27;20080;-89
2022/09/20 03:53:24;;;;;;;30.50;12.95;;;;;;;11.53;80.39;100455.97;5110497;27;20557;-89
2022/09/20 03:56:28;;;;;;;25.38;11.35;;;;;;;11.40;80.56;100464.09;5121701;27;20385;-89
2022/09/20 03:59:24;;;;;;;28.95;11.95;;;;;;;11.33;80.87;100467.38;5103176;27;20126;-89
2022/09/20 04:02:08;;;;;;;36.92;12.48;;;;;;;11.47;80.60;100469.75;5131469;27;20117;-89
2022/09/20 04:04:47;;;;;;;31.88;13.00;;;;;;;11.50;80.71;100472.19;5076634;27;20042;-88
2022/09/20 04:07:22;;;;;;;35.42;13.82;;;;;;;11.48;80.67;100474.09;5068823;27;20039;-88
2022/09/20 04:09:53;;;;;;;32.88;13.45;;;;;;;11.54;80.95;100467.44;5089498;27;20058;-88
2022/09/20 04:12:29;;;;;;;31.25;14.43;;;;;;;11.43;81.24;100466.50;5078289;27;20138;-88
2022/09/20 04:15:14;;;;;;;32.80;13.80;;;;;;;11.49;80.89;100462.47;5090216;27;20513;-88
2022/09/20 04:17:53;;;;;;;29.40;12.98;;;;;;;11.46;80.90;100468.91;5077492;27;20088;-88
2022/09/20 04:20:35;;;;;;;28.52;13.10;;;;;;;11.49;81.26;100465.16;5100530;27;20043;-88
2022/09/20 04:23:29;;;;;;;28.65;12.93;;;;;;;11.44;81.61;100473.50;5127218;27;20040;-88
2022/09/20 04:25:58;;;;;;;35.90;13.82;;;;;;;11.55;81.11;100469.97;5090860;27;20082;-88
2022/09/20 04:28:35;;;;;;;25.15;12.60;;;;;;;11.50;81.34;100475.66;5096908;27;20043;-89
2022/09/20 04:31:13;;;;;;;45.30;14.73;;;;;;;11.51;81.49;100471.19;5101189;27;20093;-89
2022/09/20 04:33:43;;;;;;;32.72;14.00;;;;;;;11.59;81.47;100478.53;5080224;27;20047;-85
2022/09/20 04:36:27;;;;;;;29.33;13.18;;;;;;;11.50;81.75;100483.66;5095334;27;20088;-85
2022/09/20 04:39:31;;;;;;;35.00;13.70;;;;;;;11.46;81.83;100479.53;5126090;27;20114;-84
2022/09/20 04:42:15;;;;;;;33.47;14.50;;;;;;;11.39;81.78;100480.16;5135658;27;20410;-85
2022/09/20 04:45:07;;;;;;;38.80;15.45;;;;;;;11.36;82.17;100478.59;5126818;27;20050;-85
2022/09/20 04:48:24;;;;;;;40.33;14.82;;;;;;;11.30;81.89;100479.94;5112115;27;20483;-84
2022/09/20 04:51:08;;;;;;;39.20;15.93;;;;;;;11.39;82.11;100486.31;5039028;28;20062;-84
2022/09/20 04:54:06;;;;;;;36.95;15.93;;;;;;;11.37;81.98;100488.28;5093993;27;20138;-84
2022/09/20 04:56:57;;;;;;;34.67;14.80;;;;;;;11.29;82.48;100485.38;5107989;27;20517;-82
2022/09/20 04:59:48;;;;;;;37.72;14.65;;;;;;;11.31;82.43;100499.41;5117392;27;20070;-82
2022/09/20 05:02:20;;;;;;;33.30;14.60;;;;;;;11.43;82.04;100495.75;5116526;27;20035;-82
2022/09/20 05:05:08;;;;;;;33.83;14.50;;;;;;;11.45;81.66;100492.97;5131310;27;20070;-82
2022/09/20 05:08:00;;;;;;;33.80;14.75;;;;;;;11.26;81.65;100494.44;5130387;27;20490;-81
2022/09/20 05:10:49;;;;;;;30.63;13.38;;;;;;;11.30;81.60;100500.38;5120000;27;20612;-82
2022/09/20 05:13:48;;;;;;;27.67;12.82;;;;;;;11.30;81.28;100503.03;5116969;27;20062;-82
2022/09/20 05:16:22;;;;;;;31.60;13.82;;;;;;;11.30;81.17;100501.22;5088826;27;20093;-82
2022/09/20 05:19:12;;;;;;;32.75;13.43;;;;;;;11.23;81.88;100504.50;5132660;27;20047;-82
2022/09/20 05:22:05;;;;;;;32.55;13.85;;;;;;;11.28;81.86;100512.94;5097389;27;20042;-82
2022/09/20 05:25:09;;;;;;;32.85;14.55;;;;;;;11.29;81.75;100511.97;5099577;27;20481;-82
2022/09/20 05:27:45;;;;;;;33.75;15.95;;;;;;;11.36;81.52;100513.16;5113254;27;20057;-82
2022/09/20 05:30:24;;;;;;;32.78;13.93;;;;;;;11.43;81.36;100525.00;5083586;27;20435;-83
2022/09/20 05:33:04;;;;;;;26.70;13.48;;;;;;;11.36;81.17;100523.81;5109162;27;20071;-82
2022/09/20 05:36:00;;;;;;;30.48;13.90;;;;;;;11.33;81.38;100526.72;5139130;27;20125;-82
2022/09/20 05:38:46;;;;;;;29.30;13.57;;;;;;;11.29;81.33;100530.56;5068811;27;20043;-82
2022/09/20 05:41:18;;;;;;;27.48;13.30;;;;;;;11.39;81.35;100530.69;5098257;27;20081;-81
2022/09/20 05:43:53;;;;;;;28.77;13.20;;;;;;;11.32;81.59;100532.97;5108451;27;20039;-82
2022/09/20 05:46:28;;;;;;;31.60;13.77;;;;;;;11.34;81.83;100531.06;5083562;27;20091;-82
2022/09/20 05:49:23;;;;;;;35.63;15.02;;;;;;;11.37;81.35;100528.16;5120091;27;20039;-84
2022/09/20 05:52:21;;;;;;;33.60;14.80;;;;;;;11.24;82.07;100540.75;5114279;27;20047;-83
2022/09/20 05:55:02;;;;;;;37.38;14.82;;;;;;;11.26;82.19;100536.16;5098375;27;20080;-83
2022/09/20 05:57:41;;;;;;;36.28;14.82;;;;;;;11.36;81.99;100539.75;5105772;27;20039;-82
2022/09/20 06:05:43;;;;;;;35.72;14.07;;;;;;;11.16;81.64;100551.97;5113520;27;20082;-82
2022/09/20 06:08:48;;;;;;;35.38;14.82;;;;;;;11.13;81.95;100554.06;5110988;27;20047;-82
2022/09/20 06:11:50;;;;;;;38.80;16.35;;;;;;;11.14;81.50;100551.25;5071730;27;20540;-82
2022/09/20 06:14:38;;;;;;;37.03;15.25;;;;;;;11.23;81.49;100550.53;5134554;27;20111;-82
2022/09/20 06:17:20;;;;;;;43.83;16.83;;;;;;;11.27;81.19;100562.63;5108584;28;20138;-82
2022/09/20 06:20:26;;;;;;;35.25;14.30;;;;;;;11.24;81.61;100554.03;5090382;27;20556;-82
2022/09/20 06:22:55;;;;;;;38.38;15.43;;;;;;;11.36;80.83;100563.69;5112701;27;20062;-82
2022/09/20 06:25:38;;;;;;;45.80;16.95;;;;;;;11.27;80.87;100554.66;5103448;27;20449;-83
2022/09/20 06:28:20;;;;;;;44.75;16.05;;;;;;;11.05;81.45;100555.50;5115546;27;20069;-82
2022/09/20 06:30:48;;;;;;;44.20;15.82;;;;;;;11.23;81.31;100560.31;5086988;27;20499;-82
2022/09/20 06:33:26;;;;;;;40.00;17.15;;;;;;;11.12;81.14;100557.66;5076688;27;20137;-81
2022/09/20 06:41:25;;;;;;;33.42;14.95;;;;;;;11.14;81.34;100555.72;5105215;27;20087;-82
2022/09/20 06:42:11;;;;;;;40.00;17.23;;;;;;;11.22;81.63;100554.16;5132434;27;20035;-82
2022/09/20 06:44:42;;;;;;;42.03;17.40;;;;;;;11.28;81.29;100563.47;5119339;27;20054;-82
2022/09/20 06:47:13;;;;;;;44.97;17.30;;;;;;;11.27;81.38;100561.75;5088337;27;20524;-83
2022/09/20 06:49:41;;;;;;;41.58;18.00;;;;;;;11.42;81.17;100570.31;5130404;27;20047;-82
2022/09/20 06:52:13;;;;;;;35.97;16.33;;;;;;;11.39;80.90;100566.09;5119077;27;20075;-82
2022/09/20 06:54:45;;;;;;;34.80;15.50;;;;;;;11.45;80.64;100557.66;5079940;27;20410;-82
2022/09/20 06:57:16;;;;;;;42.53;17.52;;;;;;;11.42;80.87;100562.34;5087819;27;20092;-82
2022/09/20 06:59:42;;;;;;;38.60;16.65;;;;;;;11.54;80.66;100557.88;5077539;27;20035;-83
2022/09/20 07:02:09;;;;;;;42.55;18.48;;;;;;;11.58;80.74;100560.16;5100160;27;20046;-81
2022/09/20 07:04:36;;;;;;;48.78;18.98;;;;;;;11.65;80.56;100555.16;5107950;28;20044;-82
2022/09/20 07:07:05;;;;;;;47.40;18.48;;;;;;;11.69;80.24;100561.94;5116279;27;20087;-82
2022/09/20 07:09:35;;;;;;;53.05;19.17;;;;;;;11.73;80.24;100564.22;5105893;27;20043;-82
2022/09/20 07:12:02;;;;;;;40.90;17.92;;;;;;;11.74;80.37;100563.25;5080793;27;20398;-82
2022/09/20 07:14:28;;;;;;;45.38;18.48;;;;;;;11.70;80.14;100559.16;5121098;27;20460;-82
2022/09/20 07:16:55;;;;;;;46.50;17.83;;;;;;;11.69;80.19;100567.25;5097887;27;20047;-82
2022/09/20 07:19:22;;;;;;;46.33;19.25;;;;;;;11.71;80.22;100563.50;5120206;27;20047;-82
2022/09/20 07:21:49;;;;;;;54.35;19.00;;;;;;;11.68;80.68;100560.25;5077291;27;20478;-82
2022/09/20 07:24:15;;;;;;;43.97;17.33;;;;;;;11.74;80.39;100559.75;5107692;27;20448;-82
2022/09/20 07:26:56;;;;;;;42.35;18.75;;;;;;;11.66;81.01;100563.03;5091781;27;20088;-82
2022/09/20 07:29:24;;;;;;;45.67;20.05;;;;;;;11.76;80.92;100563.13;5083119;27;20054;-84
2022/09/20 07:31:50;;;;;;;49.50;18.77;;;;;;;11.83;80.96;100574.97;5113358;27;20052;-84
2022/09/20 07:34:19;;;;;;;54.00;20.05;;;;;;;11.88;80.88;100563.97;5095998;27;20050;-82
2022/09/20 07:36:50;;;;;;;48.42;20.50;;;;;;;11.88;80.70;100567.50;5091831;27;20036;-84
2022/09/20 07:39:16;;;;;;;50.13;19.15;;;;;;;12.00;80.43;100570.94;5095901;27;20456;-83
2022/09/20 07:41:47;;;;;;;46.45;18.02;;;;;;;12.08;80.51;100570.28;5086988;27;20433;-82
2022/09/20 07:44:20;;;;;;;42.55;18.67;;;;;;;12.15;80.33;100567.00;5066028;27;20100;-84
2022/09/20 07:46:52;;;;;;;40.47;15.43;;;;;;;12.19;79.71;100572.94;5118220;27;20545;-83
2022/09/20 07:49:20;;;;;;;33.78;15.32;;;;;;;12.25;79.82;100568.91;5080181;27;20087;-82
2022/09/20 07:51:48;;;;;;;22.95;8.77;;;;;;;12.31;78.70;100573.69;5108345;27;20112;-82
2022/09/20 07:54:15;;;;;;;26.17;10.20;;;;;;;12.38;78.70;100566.88;5061144;27;20066;-82
2022/09/20 07:56:42;;;;;;;26.55;10.15;;;;;;;12.39;78.55;100573.94;5103474;27;20393;-83
2022/09/20 07:59:09;;;;;;;25.25;7.80;;;;;;;12.43;78.34;100569.16;5093783;27;20095;-83
2022/09/20 08:01:36;;;;;;;25.13;8.25;;;;;;;12.43;77.45;100569.16;5122899;27;20475;-82
2022/09/20 08:04:04;;;;;;;21.90;8.00;;;;;;;12.40;76.34;100566.78;5093908;27;20039;-83
2022/09/20 08:06:31;;;;;;;16.58;7.28;;;;;;;12.51;76.85;100569.34;5104251;27;20034;-84
2022/09/20 08:08:58;;;;;;;28.13;6.93;;;;;;;12.48;76.05;100572.28;5123836;27;20078;-81
2022/09/20 08:11:24;;;;;;;16.67;5.82;;;;;;;12.58;75.97;100567.88;5142639;27;20036;-82
2022/09/20 08:13:55;;;;;;;14.05;5.25;;;;;;;12.60;74.97;100571.25;5104227;27;20092;-82
2022/09/20 08:16:36;;;;;;;16.55;4.22;;;;;;;12.68;74.27;100583.91;5114076;27;20101;-82
2022/09/20 08:19:03;;;;;;;16.70;4.22;;;;;;;12.72;73.55;100586.19;5104286;27;20050;-82
2022/09/20 08:21:31;;;;;;;21.25;4.53;;;;;;;12.79;73.06;100581.16;5123123;27;20517;-82
2022/09/20 08:23:59;;;;;;;11.00;3.60;;;;;;;12.78;70.31;100584.81;5098846;27;20463;-82
2022/09/20 08:26:27;;;;;;;24.38;4.15;;;;;;;12.81;71.14;100598.72;5104709;27;20040;-82
2022/09/20 08:28:55;;;;;;;18.67;4.45;;;;;;;12.76;69.79;100592.09;5101469;27;20411;-83
2022/09/20 08:31:24;;;;;;;16.85;3.60;;;;;;;12.77;69.42;100591.09;5083533;27;20054;-82
2022/09/20 08:33:52;;;;;;;14.50;4.70;;;;;;;12.79;70.59;100583.84;5118660;27;20054;-82
2022/09/20 08:36:23;;;;;;;13.52;4.72;;;;;;;12.86;70.94;100582.34;5104982;27;20493;-82
2022/09/20 08:38:51;;;;;;;20.55;4.07;;;;;;;12.93;69.86;100588.00;5110708;27;20043;-82
2022/09/20 08:42:11;;;;;;;18.65;4.25;;;;;;;12.75;66.60;100580.59;5114479;27;20070;-82
2022/09/20 08:44:51;;;;;;;19.38;4.03;;;;;;;12.81;68.31;100577.41;5117533;27;20055;-82
2022/09/20 08:47:28;;;;;;;13.77;4.10;;;;;;;12.88;68.32;100587.53;5087819;27;20035;-83
2022/09/20 08:49:55;;;;;;;18.77;6.18;;;;;;;12.91;67.54;100571.28;5117710;27;20036;-83
2022/09/20 08:52:35;;;;;;;15.85;4.00;;;;;;;12.79;67.72;100582.00;5107208;27;20071;-83
2022/09/20 08:55:15;;;;;;;21.13;5.47;;;;;;;12.82;68.22;100576.44;5101234;27;20125;-85
2022/09/20 08:57:43;;;;;;;11.68;4.60;;;;;;;12.87;67.86;100575.19;5091858;27;20046;-82
2022/09/20 09:00:16;;;;;;;21.77;4.90;;;;;;;12.85;67.78;100574.47;5125848;27;20038;-83
2022/09/20 09:02:44;;;;;;;20.63;5.00;;;;;;;12.93;67.92;100574.66;5101042;27;20064;-84
2022/09/20 09:05:27;;;;;;;15.25;4.13;;;;;;;12.93;66.96;100572.84;5096704;27;20031;-82
2022/09/20 09:07:54;;;;;;;22.45;5.28;;;;;;;12.98;68.24;100585.78;5088677;27;20086;-83
2022/09/20 09:10:20;;;;;;;21.40;5.53;;;;;;;13.08;69.07;100580.47;5099075;27;20052;-83
2022/09/20 09:12:47;;;;;;;17.20;5.13;;;;;;;13.18;67.29;100590.22;5115933;27;20502;-82
2022/09/20 09:15:24;;;;;;;15.48;4.10;;;;;;;13.14;67.66;100583.44;5081507;27;20102;-83
2022/09/20 09:17:52;;;;;;;14.40;4.22;;;;;;;13.24;66.85;100580.81;5097621;27;20067;-84
2022/09/20 09:20:21;;;;;;;8.93;3.63;;;;;;;13.24;65.23;100573.66;5098660;27;20042;-84
2022/09/20 09:22:59;;;;;;;14.63;3.42;;;;;;;13.16;64.39;100570.84;5105132;27;20509;-82
2022/09/20 09:25:37;;;;;;;13.90;5.25;;;;;;;13.30;63.87;100566.13;5107388;27;20044;-81
2022/09/20 09:28:06;;;;;;;15.50;4.25;;;;;;;13.30;65.23;100576.81;5103213;27;20514;-81
2022/09/20 09:30:36;;;;;;;13.25;3.45;;;;;;;13.24;64.34;100572.81;5101309;27;20085;-81
2022/09/20 09:33:24;;;;;;;14.55;4.38;;;;;;;13.12;63.62;100581.91;5114187;27;20130;-82
2022/09/20 09:35:58;;;;;;;18.92;4.28;;;;;;;13.22;65.57;100572.94;5106683;27;20040;-82
2022/09/20 09:38:36;;;;;;;16.70;3.13;;;;;;;13.17;63.67;100574.34;5101013;27;20104;-85
2022/09/20 09:41:07;;;;;;;18.58;4.32;;;;;;;13.19;63.39;100577.72;5116191;27;20066;-82
2022/09/20 09:43:36;;;;;;;15.80;3.63;;;;;;;13.09;62.33;100574.16;5119766;27;20036;-83
2022/09/20 09:46:20;;;;;;;17.55;3.67;;;;;;;13.08;62.58;100572.47;5110877;27;20042;-82
2022/09/20 09:49:12;;;;;;;15.60;3.25;;;;;;;13.09;62.63;100572.34;5074230;27;20054;-82
2022/09/20 09:51:42;;;;;;;13.55;3.58;;;;;;;13.23;62.90;100566.66;5114975;27;20043;-83
2022/09/20 09:54:16;;;;;;;10.07;3.40;;;;;;;13.29;63.89;100567.13;5103470;27;20436;-81
2022/09/20 10:01:43;;;;;;;13.60;2.95;;;;;;;13.36;62.04;100563.78;5091090;27;20538;-85
2022/09/20 10:04:30;;;;;;;13.93;3.40;;;;;;;13.38;61.61;100558.28;5073435;27;20131;-85
2022/09/20 10:07:13;;;;;;;14.40;4.07;;;;;;;13.48;62.56;100561.81;5091489;27;20092;-85
2022/09/20 10:09:55;;;;;;;11.07;3.03;;;;;;;13.61;63.34;100551.78;5118278;27;20043;-83
2022/09/20 10:12:37;;;;;;;23.95;3.38;;;;;;;13.67;60.86;100550.38;5097743;27;20443;-84
2022/09/20 10:15:28;;;;;;;12.82;4.45;;;;;;;13.52;60.30;100551.75;5134314;27;20080;-84
2022/09/20 10:17:59;;;;;;;11.45;3.60;;;;;;;13.59;60.74;100558.22;5101326;27;20455;-82
2022/09/20 10:20:32;;;;;;;14.68;3.30;;;;;;;13.60;60.26;100557.22;5076847;27;20143;-82
2022/09/20 10:23:25;;;;;;;12.38;3.40;;;;;;;13.60;60.00;100555.41;5122113;27;20043;-85
2022/09/20 10:26:30;;;;;;;9.95;2.97;;;;;;;13.66;59.85;100554.00;5104961;27;20475;-84
2022/09/20 10:29:15;;;;;;;23.35;3.92;;;;;;;13.64;59.27;100561.31;5117071;27;20386;-86
2022/09/20 10:32:21;;;;;;;11.65;2.92;;;;;;;13.54;59.86;100571.97;5131686;27;20067;-84
2022/09/20 10:35:21;;;;;;;15.48;3.47;;;;;;;13.42;61.51;100570.38;5135810;27;20046;-82
2022/09/20 10:38:18;;;;;;;17.70;4.80;;;;;;;13.36;61.56;100565.59;5115851;27;20035;-84
2022/09/20 10:43:55;;;;;;;13.43;4.00;;;;;;;13.37;64.62;100568.13;5123835;27;20035;-82
2022/09/20 10:46:55;;;;;;;9.43;3.70;;;;;;;13.34;63.93;100564.91;5133787;27;20054;-81
2022/09/20 10:49:46;;;;;;;11.68;3.25;;;;;;;13.41;64.00;100566.03;5104821;27;20058;-82
2022/09/20 10:52:30;;;;;;;13.88;3.17;;;;;;;13.49;63.51;100566.19;5108419;27;20476;-82
2022/09/20 10:55:17;;;;;;;13.18;3.25;;;;;;;13.49;63.96;100562.69;5127150;27;20088;-81
2022/09/20 10:58:23;;;;;;;8.68;3.90;;;;;;;13.43;62.20;100556.94;5107664;27;20474;-82
2022/09/20 11:01:18;;;;;;;19.85;4.35;;;;;;;13.42;62.36;100552.56;5120624;27;20092;-81
2022/09/20 11:04:11;;;;;;;16.75;4.20;;;;;;;13.54;62.60;100552.47;5095287;27;20114;-81
2022/09/20 11:06:49;;;;;;;19.77;3.60;;;;;;;13.56;63.13;100550.47;5096706;27;20067;-82
2022/09/20 11:09:22;;;;;;;11.85;3.63;;;;;;;13.55;62.53;100549.63;5118565;27;20043;-81
2022/09/20 11:11:52;;;;;;;18.05;3.50;;;;;;;13.60;61.99;100552.72;5099883;27;20075;-85
2022/09/20 11:14:30;;;;;;;13.73;3.58;;;;;;;13.63;60.34;100554.28;5110982;27;20043;-83
2022/09/20 11:17:41;;;;;;;14.98;3.30;;;;;;;13.63;59.32;100549.78;5105605;27;20441;-81
2022/09/20 11:20:19;;;;;;;13.48;3.20;;;;;;;13.73;59.79;100546.28;5129508;27;20089;-82
2022/09/20 11:22:49;;;;;;;11.60;2.78;;;;;;;13.83;59.92;100544.47;5126866;27;20042;-81
2022/09/20 11:25:33;;;;;;;11.95;2.63;;;;;;;13.80;60.02;100542.94;5116807;27;20054;-81
2022/09/20 11:28:20;;;;;;;16.90;3.03;;;;;;;13.86;58.82;100538.84;5103647;27;20035;-81
2022/09/20 11:30:59;;;;;;;11.93;2.75;;;;;;;13.93;59.23;100539.16;5115872;27;20067;-82
2022/09/20 11:33:26;;;;;;;20.63;3.15;;;;;;;14.00;59.54;100535.78;5099514;27;20127;-82
2022/09/20 11:35:59;;;;;;;17.33;3.08;;;;;;;13.99;59.21;100544.78;5132593;27;20135;-81
2022/09/20 11:38:36;;;;;;;13.65;2.83;;;;;;;13.92;58.69;100542.78;5109026;27;20062;-82
2022/09/20 11:41:10;;;;;;;17.70;3.33;;;;;;;13.98;59.00;100539.56;5095688;27;20037;-83
2022/09/20 11:43:42;;;;;;;12.52;2.67;;;;;;;13.99;59.09;100535.91;5116482;27;20551;-82
2022/09/20 11:46:13;;;;;;;10.57;2.97;;;;;;;13.97;59.33;100540.53;5113926;27;20090;-82
2022/09/20 11:48:53;;;;;;;16.25;4.38;;;;;;;13.92;58.73;100540.97;5107650;27;20048;-81
2022/09/20 11:51:31;;;;;;;11.95;3.28;;;;;;;13.90;58.93;100548.28;5111155;27;20135;-82
2022/09/20 11:54:19;;;;;;;15.82;3.55;;;;;;;13.90;59.07;100542.94;5139136;27;20049;-82
2022/09/20 11:56:51;;;;;;;16.75;3.00;;;;;;;13.93;60.06;100536.47;5104086;27;20126;-84
2022/09/20 11:59:54;;;;;;;24.08;3.85;;;;;;;13.89;59.71;100534.09;5095865;27;20050;-83
2022/09/20 12:02:34;;;;;;;15.55;3.08;;;;;;;14.03;59.04;100534.66;5107729;27;20067;-82
2022/09/20 12:05:04;;;;;;;16.30;2.88;;;;;;;14.05;58.53;100528.19;5086204;27;20145;-83
2022/09/20 12:07:40;;;;;;;14.07;2.60;;;;;;;14.11;58.68;100532.94;5098305;27;20127;-83
2022/09/20 12:10:29;;;;;;;12.38;2.60;;;;;;;14.14;57.61;100530.97;5106561;27;20040;-82
2022/09/20 12:12:58;;;;;;;14.25;2.42;;;;;;;14.24;57.96;100527.31;5084117;27;20083;-82
2022/09/20 12:15:25;;;;;;;14.43;2.30;;;;;;;14.26;57.88;100524.50;5074948;27;20115;-82
2022/09/20 12:17:51;;;;;;;10.63;2.20;;;;;;;14.25;57.41;100523.66;5093411;27;20392;-81
2022/09/20 12:20:43;;;;;;;9.88;2.75;;;;;;;14.14;54.89;100521.13;5105638;27;20431;-81
2022/09/20 12:23:41;;;;;;;9.30;1.98;;;;;;;14.13;56.83;100530.16;5079291;27;20047;-81
2022/09/20 12:26:21;;;;;;;8.50;1.70;;;;;;;14.16;55.11;100521.84;5104474;27;20475;-81